createdAt,value
2019-02-20T00:02:23.269Z,26.13
2019-02-20T00:04:52.981Z,23.67
2019-02-20T00:07:23.820Z,26.67
2019-02-20T00:09:53.247Z,24.47
2019-02-20T00:12:23.734Z,20.20
2019-02-20T00:14:53.240Z,26.17
2019-02-20T00:17:22.908Z,26.77
2019-02-20T00:19:52.564Z,24.63
2019-02-20T00:22:23.351Z,27.57
2019-02-20T00:24:52.723Z,21.23
2019-02-20T00:27:23.484Z,28.00
2019-02-20T00:29:54.720Z,24.73
2019-02-20T00:32:24.645Z,23.93
2019-02-20T00:34:54.153Z,25.23
2019-02-20T00:37:23.700Z,27.07
2019-02-20T00:39:54.575Z,24.60
2019-02-20T00:42:26.186Z,24.50
2019-02-20T00:45:04.057Z,30.33
2019-02-20T00:47:53.152Z,22.77
2019-02-20T00:50:23.699Z,28.13
2019-02-20T00:52:58.404Z,22.70
2019-02-20T00:55:30.124Z,23.90
2019-02-20T00:57:59.585Z,26.97
2019-02-20T01:00:30.161Z,28.20
2019-02-20T01:03:00.039Z,21.80
2019-02-20T01:05:31.330Z,21.20
2019-02-20T01:08:00.830Z,24.57
2019-02-20T01:10:30.510Z,27.20
2019-02-20T01:13:00.011Z,25.20
2019-02-20T01:15:31.886Z,22.90
2019-02-20T01:18:02.641Z,20.83
2019-02-20T01:20:32.482Z,21.20
2019-02-20T01:23:02.990Z,20.47
2019-02-20T01:25:32.603Z,23.07
2019-02-20T01:28:03.344Z,21.60
2019-02-20T01:30:33.737Z,22.13
2019-02-20T01:33:06.953Z,22.73
2019-02-20T01:35:38.524Z,23.15
2019-02-20T01:38:09.052Z,24.53
2019-02-20T01:40:38.706Z,19.67
2019-02-20T01:43:09.320Z,25.08
2019-02-20T01:45:39.711Z,22.37
2019-02-20T01:48:09.368Z,20.93
2019-02-20T01:50:38.821Z,26.60
2019-02-20T01:53:10.648Z,23.17
2019-02-20T01:55:39.811Z,18.97
2019-02-20T01:58:10.531Z,19.55
2019-02-20T02:00:39.948Z,20.40
2019-02-20T02:03:09.558Z,20.37
2019-02-20T02:05:40.804Z,20.62
2019-02-20T02:08:10.449Z,20.75
2019-02-20T02:10:40.130Z,22.10
2019-02-20T02:13:10.509Z,19.93
2019-02-20T02:15:41.487Z,20.13
2019-02-20T02:18:11.250Z,25.27
2019-02-20T02:20:41.766Z,21.40
2019-02-20T02:23:19.662Z,17.77
2019-02-20T02:25:42.597Z,21.45
2019-02-20T02:28:16.074Z,23.37
2019-02-20T02:30:47.649Z,24.25
2019-02-20T02:33:17.279Z,20.73
2019-02-20T02:35:48.016Z,20.70
2019-02-20T02:38:18.602Z,21.90
2019-02-20T02:40:48.942Z,20.47
2019-02-20T02:43:19.848Z,20.93
2019-02-20T02:45:49.340Z,23.43
2019-02-20T02:48:18.835Z,22.03
2019-02-20T02:50:48.222Z,22.43
2019-02-20T02:53:17.895Z,20.53
2019-02-20T02:55:49.093Z,21.27
2019-02-20T02:58:19.786Z,19.70
2019-02-20T03:00:54.182Z,25.30
2019-02-20T03:03:26.049Z,22.07
2019-02-20T03:05:57.262Z,20.57
2019-02-20T03:08:26.628Z,24.10
2019-02-20T03:10:56.372Z,21.83
2019-02-20T03:13:25.790Z,20.40
2019-02-20T03:15:55.284Z,19.30
2019-02-20T03:18:24.902Z,21.60
2019-02-20T03:20:54.306Z,23.13
2019-02-20T03:23:23.705Z,23.23
2019-02-20T03:25:53.326Z,21.50
2019-02-20T03:28:22.697Z,17.20
2019-02-20T03:30:54.649Z,23.40
2019-02-20T03:33:25.535Z,21.87
2019-02-20T03:35:54.916Z,24.90
2019-02-20T03:38:30.247Z,25.47
2019-02-20T03:40:55.849Z,27.07
2019-02-20T03:43:25.202Z,23.55
2019-02-20T03:45:56.670Z,25.20
2019-02-20T03:48:26.409Z,23.20
2019-02-20T03:50:55.764Z,29.87
2019-02-20T03:53:28.770Z,29.12
2019-02-20T03:56:00.581Z,28.97
2019-02-20T03:58:33.316Z,31.10
2019-02-20T04:01:02.934Z,26.52
2019-02-20T04:03:34.169Z,30.37
2019-02-20T04:06:03.614Z,30.07
2019-02-20T04:08:34.161Z,29.13
2019-02-20T04:11:03.634Z,29.67
2019-02-20T04:13:33.135Z,35.68
2019-02-20T04:16:02.526Z,34.45
2019-02-20T04:18:33.768Z,34.23
2019-02-20T04:21:03.153Z,31.77
2019-02-20T04:23:32.576Z,33.90
2019-02-20T04:26:02.434Z,31.70
2019-02-20T04:28:33.057Z,37.17
2019-02-20T04:31:02.496Z,29.10
2019-02-20T04:33:31.961Z,30.57
2019-02-20T04:36:01.357Z,28.77
2019-02-20T04:38:30.769Z,31.60
2019-02-20T04:41:02.126Z,34.07
2019-02-20T04:43:32.654Z,32.30
2019-02-20T04:46:03.855Z,29.87
2019-02-20T04:48:33.642Z,30.70
2019-02-20T04:51:03.088Z,26.85
2019-02-20T04:53:32.469Z,31.17
2019-02-20T04:56:03.931Z,29.93
2019-02-20T04:58:33.334Z,28.87
2019-02-20T05:01:02.757Z,35.75
2019-02-20T05:03:34.050Z,31.80
2019-02-20T05:06:03.432Z,37.33
2019-02-20T05:08:34.294Z,30.05
2019-02-20T05:11:03.912Z,27.83
2019-02-20T05:13:33.631Z,34.43
2019-02-20T05:16:03.039Z,31.60
2019-02-20T05:18:33.674Z,28.60
2019-02-20T05:21:03.121Z,29.53
2019-02-20T05:23:33.520Z,28.90
2019-02-20T05:26:04.133Z,31.93
2019-02-20T05:28:33.519Z,34.00
2019-02-20T05:31:04.706Z,35.45
2019-02-20T05:33:35.749Z,30.17
2019-02-20T05:36:05.143Z,31.43
2019-02-20T05:38:34.527Z,30.47
2019-02-20T05:41:04.060Z,28.80
2019-02-20T05:43:33.488Z,30.55
2019-02-20T05:46:02.874Z,27.77
2019-02-20T05:48:32.486Z,29.47
2019-02-20T05:51:02.237Z,31.77
2019-02-20T05:53:33.123Z,27.77
2019-02-20T05:56:02.758Z,30.83
2019-02-20T05:58:32.141Z,26.57
2019-02-20T06:01:01.585Z,29.93
2019-02-20T06:03:31.112Z,29.43
2019-02-20T06:06:00.509Z,27.60
2019-02-20T06:08:29.966Z,32.80
2019-02-20T06:11:02.036Z,31.52
2019-02-20T06:13:31.408Z,32.53
2019-02-20T06:16:00.806Z,30.13
2019-02-20T06:18:30.300Z,31.30
2019-02-20T06:20:59.734Z,29.63
2019-02-20T06:23:32.727Z,28.93
2019-02-20T06:26:03.583Z,30.70
2019-02-20T06:28:33.188Z,31.35
2019-02-20T06:31:02.617Z,32.17
2019-02-20T06:33:32.227Z,31.23
2019-02-20T06:36:01.596Z,29.73
2019-02-20T06:38:31.002Z,28.57
2019-02-20T06:41:00.456Z,28.53
2019-02-20T06:43:29.826Z,33.50
2019-02-20T06:45:59.266Z,35.97
2019-02-20T06:48:30.750Z,31.53
2019-02-20T06:51:01.646Z,32.87
2019-02-20T06:53:31.146Z,29.00
2019-02-20T06:56:00.886Z,30.30
2019-02-20T06:58:31.294Z,34.90
2019-02-20T07:01:02.553Z,31.47
2019-02-20T07:03:35.746Z,32.77
2019-02-20T07:06:41.263Z,33.03
2019-02-20T07:10:07.493Z,34.27
2019-02-20T07:12:51.928Z,32.23
2019-02-20T07:15:53.689Z,36.00
2019-02-20T07:18:58.500Z,37.33
2019-02-20T07:22:00.752Z,32.53
2019-02-20T07:25:03.087Z,36.53
2019-02-20T07:28:00.067Z,35.53
2019-02-20T07:30:29.520Z,36.93
2019-02-20T07:33:00.015Z,32.67
2019-02-20T07:35:29.454Z,34.43
2019-02-20T07:37:58.855Z,30.77
2019-02-20T07:40:28.701Z,37.55
2019-02-20T07:43:00.249Z,33.50
2019-02-20T07:45:31.418Z,36.08
2019-02-20T07:48:00.809Z,35.60
2019-02-20T07:50:30.268Z,33.70
2019-02-20T07:53:00.724Z,34.87
2019-02-20T07:55:31.244Z,30.93
2019-02-20T07:58:02.836Z,35.70
2019-02-20T08:00:32.239Z,35.60
2019-02-20T08:03:01.738Z,29.33
2019-02-20T08:05:32.753Z,32.07
2019-02-20T08:08:02.159Z,29.60
2019-02-20T08:10:31.542Z,31.90
2019-02-20T08:13:03.003Z,34.00
2019-02-20T08:15:32.382Z,35.53
2019-02-20T08:18:03.296Z,31.70
2019-02-20T08:20:34.071Z,34.83
2019-02-20T08:23:03.551Z,37.05
2019-02-20T08:25:32.972Z,30.40
2019-02-20T08:28:02.599Z,33.23
2019-02-20T08:30:32.015Z,32.43
2019-02-20T08:33:03.126Z,32.57
2019-02-20T08:35:35.223Z,33.37
2019-02-20T08:38:04.566Z,30.97
2019-02-20T08:40:34.023Z,36.25
2019-02-20T08:43:08.058Z,34.88
2019-02-20T08:45:37.438Z,32.43
2019-02-20T08:48:06.860Z,29.52
2019-02-20T08:50:36.435Z,28.77
2019-02-20T08:53:05.807Z,35.23
2019-02-20T08:55:36.187Z,30.82
2019-02-20T08:58:06.342Z,31.35
2019-02-20T09:00:38.134Z,31.00
2019-02-20T09:03:07.521Z,33.50
2019-02-20T09:05:37.170Z,33.83
2019-02-20T09:08:08.062Z,31.20
2019-02-20T09:10:37.545Z,31.05
2019-02-20T09:13:09.012Z,30.60
2019-02-20T09:15:38.403Z,31.33
2019-02-20T09:18:07.929Z,37.40
2019-02-20T09:20:37.609Z,29.33
2019-02-20T09:23:10.849Z,30.43
2019-02-20T09:25:41.850Z,34.40
2019-02-20T09:28:11.670Z,30.62
2019-02-20T09:30:41.125Z,31.77
2019-02-20T09:33:10.510Z,36.23
2019-02-20T09:35:40.289Z,33.77
2019-02-20T09:38:10.534Z,29.50
2019-02-20T09:40:42.560Z,34.33
2019-02-20T09:43:12.205Z,33.47
2019-02-20T09:45:43.897Z,31.90
2019-02-20T09:48:12.805Z,35.45
2019-02-20T09:50:42.655Z,37.25
2019-02-20T09:53:12.189Z,40.57
2019-02-20T09:55:50.932Z,36.77
2019-02-20T09:58:14.383Z,32.50
2019-02-20T10:00:44.101Z,37.23
2019-02-20T10:03:13.952Z,35.57
2019-02-20T10:05:45.159Z,33.10
2019-02-20T10:08:14.542Z,35.90
2019-02-20T10:10:47.689Z,41.77
2019-02-20T10:13:18.696Z,36.23
2019-02-20T10:15:49.540Z,39.80
2019-02-20T10:18:19.128Z,36.57
2019-02-20T10:20:48.562Z,34.93
2019-02-20T10:23:20.025Z,35.92
2019-02-20T10:25:50.563Z,39.03
2019-02-20T10:28:21.661Z,35.75
2019-02-20T10:30:53.317Z,42.97
2019-02-20T10:33:23.679Z,37.70
2019-02-20T10:35:54.979Z,34.60
2019-02-20T10:38:27.263Z,38.40
2019-02-20T10:40:56.849Z,34.37
2019-02-20T10:43:26.578Z,34.03
2019-02-20T10:45:58.294Z,33.48
2019-02-20T10:48:29.850Z,35.20
2019-02-20T10:50:59.723Z,31.93
2019-02-20T10:53:29.264Z,35.47
2019-02-20T10:55:58.787Z,37.53
2019-02-20T10:58:28.273Z,41.77
2019-02-20T11:00:57.722Z,35.40
2019-02-20T11:03:29.013Z,36.33
2019-02-20T11:05:58.545Z,36.57
2019-02-20T11:08:28.296Z,35.73
2019-02-20T11:10:59.371Z,34.00
2019-02-20T11:13:29.091Z,37.40
2019-02-20T11:15:58.960Z,31.20
2019-02-20T11:18:28.399Z,33.10
2019-02-20T11:20:57.828Z,33.00
2019-02-20T11:23:28.315Z,33.77
2019-02-20T11:25:57.713Z,35.80
2019-02-20T11:28:28.876Z,35.50
2019-02-20T11:30:59.561Z,33.60
2019-02-20T11:33:29.151Z,35.07
2019-02-20T11:35:58.977Z,37.80
2019-02-20T11:38:30.913Z,32.70
2019-02-20T11:41:00.737Z,32.38
2019-02-20T11:43:30.961Z,34.85
2019-02-20T11:46:00.818Z,39.53
2019-02-20T11:48:30.711Z,39.17
2019-02-20T11:51:01.055Z,41.10
2019-02-20T11:53:37.136Z,35.78
2019-02-20T11:56:04.632Z,32.67
2019-02-20T11:58:35.969Z,38.63
2019-02-20T12:01:06.057Z,34.57
2019-02-20T12:03:36.033Z,42.10
2019-02-20T12:06:05.621Z,37.15
2019-02-20T12:08:36.092Z,38.67
2019-02-20T12:11:05.851Z,34.60
2019-02-20T12:13:38.097Z,38.00
2019-02-20T12:16:09.558Z,41.03
2019-02-20T12:18:39.162Z,38.97
2019-02-20T12:21:08.874Z,37.20
2019-02-20T12:23:38.441Z,36.97
2019-02-20T12:26:07.998Z,37.40
2019-02-20T12:28:37.686Z,40.30
2019-02-20T12:31:08.082Z,44.33
2019-02-20T12:33:37.441Z,43.10
2019-02-20T12:36:07.867Z,38.30
2019-02-20T12:38:37.346Z,43.53
2019-02-20T12:41:08.293Z,43.87
2019-02-20T12:43:41.713Z,40.50
2019-02-20T12:46:14.301Z,42.60
2019-02-20T12:48:43.799Z,45.65
2019-02-20T12:51:14.770Z,44.13
2019-02-20T12:53:44.454Z,40.83
2019-02-20T12:56:14.482Z,41.23
2019-02-20T12:58:54.823Z,45.33
2019-02-20T13:01:24.869Z,45.00
2019-02-20T13:03:56.262Z,46.87
2019-02-20T13:06:25.756Z,45.30
2019-02-20T13:08:56.353Z,52.27
2019-02-20T13:11:26.096Z,49.20
2019-02-20T13:13:56.326Z,48.67
2019-02-20T13:16:26.548Z,45.40
2019-02-20T13:18:58.682Z,48.13
2019-02-20T13:21:30.545Z,52.77
2019-02-20T13:24:02.074Z,48.40
2019-02-20T13:26:32.630Z,49.03
2019-02-20T13:29:02.856Z,48.90
2019-02-20T13:31:32.760Z,49.47
2019-02-20T13:34:05.904Z,47.10
2019-02-20T13:36:35.532Z,45.87
2019-02-20T13:39:06.375Z,44.75
2019-02-20T13:41:36.203Z,47.07
2019-02-20T13:44:06.048Z,43.83
2019-02-20T13:46:36.535Z,49.33
2019-02-20T13:49:06.037Z,41.57
2019-02-20T13:51:37.674Z,44.43
2019-02-20T13:54:07.167Z,41.30
2019-02-20T13:56:38.562Z,42.53
2019-02-20T13:59:09.738Z,39.43
2019-02-20T14:01:41.072Z,37.73
2019-02-20T14:04:10.558Z,37.83
2019-02-20T14:06:40.197Z,38.43
2019-02-20T14:09:09.714Z,39.83
2019-02-20T14:11:43.795Z,44.67
2019-02-20T14:14:14.482Z,37.07
2019-02-20T14:16:45.679Z,36.23
2019-02-20T14:19:15.677Z,37.10
2019-02-20T14:21:45.268Z,42.17
2019-02-20T14:24:15.805Z,37.80
2019-02-20T14:26:45.217Z,35.47
2019-02-20T14:29:14.814Z,40.00
2019-02-20T14:31:44.335Z,37.53
2019-02-20T14:34:14.107Z,31.63
2019-02-20T14:36:43.875Z,38.40
2019-02-20T14:39:13.607Z,37.13
2019-02-20T14:41:45.609Z,34.90
2019-02-20T14:44:15.543Z,36.93
2019-02-20T14:46:45.612Z,32.77
2019-02-20T14:49:16.618Z,35.20
2019-02-20T14:51:46.496Z,36.97
2019-02-20T14:54:15.934Z,31.73
2019-02-20T14:56:48.169Z,35.20
2019-02-20T14:59:17.810Z,36.53
2019-02-20T15:01:49.443Z,35.15
2019-02-20T15:04:19.900Z,36.70
2019-02-20T15:06:50.797Z,39.47
2019-02-20T15:09:22.704Z,38.67
2019-02-20T15:11:52.922Z,38.13
2019-02-20T15:14:24.375Z,37.17
2019-02-20T15:17:01.091Z,33.37
2019-02-20T15:19:31.125Z,33.33
2019-02-20T15:22:02.237Z,36.68
2019-02-20T15:24:32.664Z,34.17
2019-02-20T15:27:03.601Z,35.47
2019-02-20T15:29:33.322Z,32.97
2019-02-20T15:32:02.929Z,30.53
2019-02-20T15:34:32.526Z,30.17
2019-02-20T15:37:01.982Z,31.40
2019-02-20T15:39:32.980Z,30.87
2019-02-20T15:42:05.099Z,26.10
2019-02-20T15:44:37.596Z,32.83
2019-02-20T15:47:07.376Z,29.03
2019-02-20T15:49:37.906Z,28.27
2019-02-20T15:52:10.408Z,29.00
2019-02-20T15:54:46.180Z,23.10
2019-02-20T15:57:17.666Z,26.75
2019-02-20T15:59:52.690Z,23.83
2019-02-20T16:02:22.322Z,23.60
2019-02-20T16:04:54.599Z,21.63
2019-02-20T16:07:25.498Z,23.13
2019-02-20T16:09:57.586Z,24.13
2019-02-20T16:12:29.151Z,21.67
2019-02-20T16:15:02.035Z,24.97
2019-02-20T16:17:33.496Z,22.20
2019-02-20T16:20:03.236Z,21.93
2019-02-20T16:22:34.543Z,21.57
2019-02-20T16:25:04.073Z,20.67
2019-02-20T16:27:37.418Z,18.73
2019-02-20T16:30:07.491Z,16.77
2019-02-20T16:32:37.177Z,16.43
2019-02-20T16:35:07.822Z,18.17
2019-02-20T16:37:43.433Z,18.30
2019-02-20T16:40:16.458Z,14.40
2019-02-20T16:42:45.837Z,14.18
2019-02-20T16:45:24.519Z,14.30
2019-02-20T16:47:54.749Z,13.37
2019-02-20T16:50:24.142Z,18.05
2019-02-20T16:52:53.736Z,12.17
2019-02-20T16:55:23.326Z,15.67
2019-02-20T16:57:58.250Z,14.90
2019-02-20T17:00:30.742Z,15.07
2019-02-20T17:03:00.447Z,15.77
2019-02-20T17:05:32.636Z,13.13
2019-02-20T17:08:02.011Z,9.97
2019-02-20T17:10:38.183Z,13.07
2019-02-20T17:13:07.686Z,14.00
2019-02-20T17:15:41.361Z,11.90
2019-02-20T17:18:16.363Z,15.43
2019-02-20T17:20:45.760Z,11.13
2019-02-20T17:23:19.692Z,8.70
2019-02-20T17:25:51.670Z,11.80
2019-02-20T17:28:24.197Z,11.47
2019-02-20T17:30:55.419Z,12.93
2019-02-20T17:33:25.917Z,13.53
2019-02-20T17:35:56.837Z,12.30
2019-02-20T17:38:29.080Z,10.90
2019-02-20T17:41:03.868Z,11.23
2019-02-20T17:43:32.589Z,13.47
2019-02-20T17:46:03.688Z,13.27
2019-02-20T17:48:36.084Z,16.07
2019-02-20T17:51:06.742Z,13.18
2019-02-20T17:53:38.844Z,9.13
2019-02-20T17:56:11.059Z,12.23
2019-02-20T17:58:42.731Z,11.65
2019-02-20T18:01:16.618Z,12.88
2019-02-20T18:03:47.738Z,10.47
2019-02-20T18:06:17.127Z,10.88
2019-02-20T18:08:47.463Z,8.63
2019-02-20T18:11:17.047Z,9.90
2019-02-20T18:13:46.437Z,10.93
2019-02-20T18:16:17.312Z,10.27
2019-02-20T18:18:48.136Z,10.77
2019-02-20T18:21:18.632Z,13.08
2019-02-20T18:23:48.078Z,11.25
2019-02-20T18:26:19.787Z,12.80
2019-02-20T18:28:49.295Z,10.30
2019-02-20T18:31:18.646Z,9.83
2019-02-20T18:33:48.259Z,9.95
2019-02-20T18:36:17.803Z,12.87
2019-02-20T18:38:49.605Z,10.38
2019-02-20T18:41:21.284Z,10.65
2019-02-20T18:43:50.696Z,11.93
2019-02-20T18:46:20.075Z,12.57
2019-02-20T18:48:49.726Z,14.73
2019-02-20T18:51:19.099Z,13.60
2019-02-20T18:53:49.954Z,12.00
2019-02-20T18:56:21.757Z,14.25
2019-02-20T18:58:50.584Z,13.30
2019-02-20T19:01:21.421Z,12.33
2019-02-20T19:03:50.957Z,10.93
2019-02-20T19:06:23.273Z,12.40
2019-02-20T19:09:04.398Z,17.60
2019-02-20T19:11:56.505Z,14.90
2019-02-20T19:14:44.087Z,11.77
2019-02-20T19:18:08.208Z,9.97
2019-02-20T19:21:09.727Z,13.10
2019-02-20T19:24:10.731Z,11.07
2019-02-20T19:27:08.129Z,13.85
2019-02-20T19:30:15.906Z,12.87
2019-02-20T19:33:11.547Z,11.90
2019-02-20T19:36:22.417Z,12.05
2019-02-20T19:39:24.066Z,10.43
2019-02-20T19:42:57.999Z,12.43
2019-02-20T19:45:44.081Z,12.07
2019-02-20T19:48:44.245Z,11.35
2019-02-20T19:52:03.617Z,17.20
2019-02-20T19:54:49.183Z,15.70
2019-02-20T19:58:05.794Z,13.28
2019-02-20T20:01:21.221Z,10.47
2019-02-20T20:04:21.141Z,14.40
2019-02-20T20:07:43.886Z,11.90
2019-02-20T20:11:03.299Z,12.63
2019-02-20T20:13:47.382Z,15.33
2019-02-20T20:17:10.161Z,15.72
2019-02-20T20:19:57.168Z,13.67
2019-02-20T20:23:00.303Z,13.10
2019-02-20T20:26:21.277Z,10.67
2019-02-20T20:29:39.854Z,16.73
2019-02-20T20:32:33.613Z,14.10
2019-02-20T20:35:27.471Z,15.27
2019-02-20T20:38:21.550Z,15.73
2019-02-20T20:41:27.107Z,14.97
2019-02-20T20:44:34.694Z,13.43
2019-02-20T20:47:32.448Z,12.10
2019-02-20T20:50:38.309Z,16.63
2019-02-20T20:53:50.562Z,17.13
2019-02-20T20:56:33.946Z,14.30
2019-02-20T20:59:40.380Z,16.23
2019-02-20T21:02:46.182Z,15.33
2019-02-20T21:06:08.930Z,14.55
2019-02-20T21:08:55.649Z,14.33
2019-02-20T21:11:51.010Z,15.93
2019-02-20T21:15:13.835Z,13.47
2019-02-20T21:18:32.919Z,14.35
2019-02-20T21:21:16.737Z,13.67
2019-02-20T21:24:54.684Z,15.53
2019-02-20T21:27:44.497Z,15.60
2019-02-20T21:31:07.203Z,15.03
2019-02-20T21:34:12.235Z,15.40
2019-02-20T21:37:10.813Z,17.90
2019-02-20T21:40:16.989Z,15.97
2019-02-20T21:43:20.582Z,16.67
2019-02-20T21:46:40.303Z,15.57
2019-02-20T21:49:36.434Z,19.00
2019-02-20T21:52:31.928Z,14.53
2019-02-20T21:55:55.266Z,16.05
2019-02-20T21:59:04.165Z,17.07
2019-02-20T22:02:18.805Z,16.77
2019-02-20T22:04:54.553Z,15.70
2019-02-20T22:08:06.804Z,19.73
2019-02-20T22:11:04.380Z,17.12
2019-02-20T22:14:17.601Z,19.47
2019-02-20T22:17:11.239Z,20.92
2019-02-20T22:20:21.390Z,21.15
2019-02-20T22:23:47.186Z,20.40
2019-02-20T22:26:59.308Z,18.92
2019-02-20T22:29:50.216Z,16.13
2019-02-20T22:33:07.059Z,15.93
2019-02-20T22:36:01.767Z,19.52
2019-02-20T22:39:01.147Z,16.93
2019-02-20T22:42:10.727Z,20.23
2019-02-20T22:45:19.858Z,21.33
2019-02-20T22:48:27.932Z,15.78
2019-02-20T22:51:31.295Z,19.23
2019-02-20T22:54:24.305Z,19.97
2019-02-20T22:57:31.215Z,19.47
2019-02-20T23:00:41.118Z,18.40
2019-02-20T23:03:53.189Z,18.50
2019-02-20T23:07:04.405Z,21.20
2019-02-20T23:09:59.066Z,16.33
2019-02-20T23:12:53.155Z,18.77
2019-02-20T23:15:26.048Z,17.20
2019-02-20T23:17:55.393Z,20.97
2019-02-20T23:20:26.286Z,19.30
2019-02-20T23:22:57.115Z,19.90
2019-02-20T23:25:26.599Z,19.40
2019-02-20T23:27:57.979Z,19.40
2019-02-20T23:30:27.373Z,21.27
2019-02-20T23:32:57.962Z,21.43
2019-02-20T23:35:29.104Z,17.87
2019-02-20T23:37:58.899Z,20.80
2019-02-20T23:40:28.276Z,19.23
2019-02-20T23:42:57.899Z,20.60
2019-02-20T23:45:27.394Z,20.33
2019-02-20T23:47:56.836Z,22.57
2019-02-20T23:50:26.537Z,19.83
2019-02-20T23:52:55.939Z,19.52
2019-02-20T23:55:25.352Z,19.73
2019-02-20T23:57:55.020Z,18.30
